createdAt,value
2023-01-19T00:00:04.894Z,78.92
2023-01-19T00:01:05.520Z,78.92
2023-01-19T00:02:04.792Z,78.71
2023-01-19T00:03:06.727Z,79.95
2023-01-19T00:04:05.829Z,77.98
2023-01-19T00:05:05.611Z,77.36
2023-01-19T00:06:05.372Z,77.26
2023-01-19T00:07:05.528Z,78.75
2023-01-19T00:08:04.729Z,78.27
2023-01-19T00:09:05.592Z,79.71
2023-01-19T00:10:05.339Z,78.82
2023-01-19T00:11:05.580Z,78.61
2023-01-19T00:12:05.339Z,81.14
2023-01-19T00:13:04.709Z,82.39
2023-01-19T00:14:06.335Z,82.24
2023-01-19T00:15:05.478Z,82.41
2023-01-19T00:16:05.538Z,81.58
2023-01-19T00:17:04.648Z,80.71
2023-01-19T00:18:05.339Z,79.58
2023-01-19T00:19:04.649Z,79.78
2023-01-19T00:20:06.121Z,80.61
2023-01-19T00:21:05.005Z,78.54
2023-01-19T00:22:05.430Z,78.96
2023-01-19T00:23:05.241Z,77.92
2023-01-19T00:24:05.382Z,77.23
2023-01-19T00:25:05.229Z,77.44
2023-01-19T00:26:04.531Z,78.37
2023-01-19T00:27:05.206Z,78.16
2023-01-19T00:28:04.518Z,79.34
2023-01-19T00:29:05.299Z,78.30
2023-01-19T00:30:05.377Z,79.27
2023-01-19T00:31:04.567Z,81.18
2023-01-19T00:32:05.327Z,82.21
2023-01-19T00:33:05.330Z,80.97
2023-01-19T00:34:05.010Z,82.49
2023-01-19T00:35:05.227Z,79.90
2023-01-19T00:36:05.120Z,80.52
2023-01-19T00:37:05.280Z,80.00
2023-01-19T00:38:05.261Z,79.38
2023-01-19T00:39:05.252Z,80.58
2023-01-19T00:40:05.249Z,79.03
2023-01-19T00:41:05.222Z,79.03
2023-01-19T00:42:05.038Z,78.72
2023-01-19T00:43:05.181Z,78.41
2023-01-19T00:44:05.071Z,78.47
2023-01-19T00:45:05.198Z,78.06
2023-01-19T00:46:05.110Z,77.26
2023-01-19T00:47:05.104Z,78.96
2023-01-19T00:48:05.112Z,79.17
2023-01-19T00:49:04.890Z,79.34
2023-01-19T00:50:05.018Z,79.13
2023-01-19T00:51:04.916Z,79.61
2023-01-19T00:52:05.089Z,78.89
2023-01-19T00:53:04.260Z,78.99
2023-01-19T00:54:05.084Z,78.37
2023-01-19T00:55:04.879Z,77.99
2023-01-19T00:56:05.051Z,80.58
2023-01-19T00:57:04.899Z,79.27
2023-01-19T00:58:04.211Z,80.21
2023-01-19T00:59:04.862Z,79.48
2023-01-19T01:00:05.068Z,80.04
2023-01-19T01:01:05.117Z,81.70
2023-01-19T01:02:05.196Z,81.35
2023-01-19T01:03:05.456Z,81.56
2023-01-19T01:04:04.179Z,81.24
2023-01-19T01:05:04.890Z,80.83
2023-01-19T01:06:04.769Z,80.00
2023-01-19T01:07:04.964Z,80.10
2023-01-19T01:08:04.759Z,79.72
2023-01-19T01:09:04.899Z,80.14
2023-01-19T01:10:04.765Z,80.59
2023-01-19T01:11:04.867Z,81.25
2023-01-19T01:12:04.790Z,81.87
2023-01-19T01:13:20.460Z,82.39
2023-01-19T01:14:05.409Z,82.39
2023-01-19T01:15:04.811Z,81.94
2023-01-19T01:16:04.807Z,80.69
2023-01-19T01:17:04.821Z,81.11
2023-01-19T01:18:04.833Z,80.69
2023-01-19T01:19:04.789Z,80.52
2023-01-19T01:20:04.850Z,81.56
2023-01-19T01:21:04.591Z,82.29
2023-01-19T01:22:04.750Z,82.56
2023-01-19T01:23:04.390Z,81.42
2023-01-19T01:24:04.839Z,81.84
2023-01-19T01:25:04.539Z,81.32
2023-01-19T01:26:04.768Z,82.35
2023-01-19T01:27:04.627Z,81.63
2023-01-19T01:28:03.880Z,82.35
2023-01-19T01:29:04.582Z,81.94
2023-01-19T01:30:04.661Z,82.63
2023-01-19T01:31:04.642Z,80.97
2023-01-19T01:32:03.839Z,81.90
2023-01-19T01:33:04.601Z,81.28
2023-01-19T01:34:04.637Z,80.76
2023-01-19T01:35:04.576Z,81.18
2023-01-19T01:36:04.611Z,81.80
2023-01-19T01:37:04.568Z,80.35
2023-01-19T01:38:03.788Z,80.38
2023-01-19T01:39:04.561Z,80.38
2023-01-19T01:40:03.778Z,80.07
2023-01-19T01:41:04.867Z,79.03
2023-01-19T01:42:04.523Z,78.30
2023-01-19T01:43:04.617Z,79.86
2023-01-19T01:44:04.448Z,78.99
2023-01-19T01:45:04.528Z,77.23
2023-01-19T01:46:04.500Z,78.41
2023-01-19T01:47:04.510Z,79.24
2023-01-19T01:48:04.451Z,78.96
2023-01-19T01:49:04.528Z,79.10
2023-01-19T01:50:04.439Z,80.04
2023-01-19T01:51:04.268Z,78.69
2023-01-19T01:52:04.382Z,79.31
2023-01-19T01:53:06.630Z,79.94
2023-01-19T01:54:03.621Z,80.11
2023-01-19T01:55:04.259Z,79.17
2023-01-19T01:56:04.427Z,78.41
2023-01-19T01:57:04.296Z,78.44
2023-01-19T01:58:04.384Z,78.69
2023-01-19T01:59:04.432Z,79.31
2023-01-19T02:00:04.350Z,79.52
2023-01-19T02:01:04.391Z,79.41
2023-01-19T02:02:04.424Z,78.86
2023-01-19T02:03:04.628Z,78.75
2023-01-19T02:04:04.389Z,78.96
2023-01-19T02:05:04.305Z,78.86
2023-01-19T02:06:04.088Z,80.00
2023-01-19T02:07:03.508Z,79.27
2023-01-19T02:08:04.136Z,80.28
2023-01-19T02:09:04.262Z,77.37
2023-01-19T02:10:04.103Z,77.82
2023-01-19T02:11:04.311Z,78.44
2023-01-19T02:12:04.092Z,79.06
2023-01-19T02:13:04.252Z,79.55
2023-01-19T02:14:04.129Z,77.89
2023-01-19T02:15:04.229Z,78.30
2023-01-19T02:16:03.389Z,77.47
2023-01-19T02:17:04.358Z,77.89
2023-01-19T02:18:04.067Z,78.41
2023-01-19T02:19:04.199Z,77.58
2023-01-19T02:20:04.112Z,77.47
2023-01-19T02:21:03.928Z,77.61
2023-01-19T02:22:04.102Z,78.55
2023-01-19T02:23:03.985Z,77.92
2023-01-19T02:24:04.128Z,78.13
2023-01-19T02:25:04.110Z,77.68
2023-01-19T02:26:04.041Z,78.41
2023-01-19T02:27:03.957Z,78.51
2023-01-19T02:28:03.267Z,77.68
2023-01-19T02:29:05.259Z,77.16
2023-01-19T02:30:04.704Z,77.99
2023-01-19T02:31:04.417Z,76.85
2023-01-19T02:32:03.217Z,78.16
2023-01-19T02:33:03.986Z,77.26
2023-01-19T02:34:04.613Z,77.37
2023-01-19T02:35:03.928Z,77.16
2023-01-19T02:36:03.713Z,77.40
2023-01-19T02:37:04.014Z,78.65
2023-01-19T02:38:03.779Z,79.38
2023-01-19T02:39:03.998Z,77.89
2023-01-19T02:40:03.975Z,77.47
2023-01-19T02:41:03.128Z,77.30
2023-01-19T02:42:03.959Z,77.92
2023-01-19T02:43:04.470Z,78.13
2023-01-19T02:44:03.749Z,78.55
2023-01-19T02:45:03.900Z,79.03
2023-01-19T02:46:03.881Z,77.82
2023-01-19T02:47:03.080Z,77.96
2023-01-19T02:48:03.718Z,79.00
2023-01-19T02:49:03.061Z,79.58
2023-01-19T02:50:03.027Z,78.34
2023-01-19T02:51:03.028Z,77.92
2023-01-19T02:52:03.769Z,78.44
2023-01-19T02:53:03.372Z,77.86
2023-01-19T02:54:03.950Z,79.21
2023-01-19T02:55:03.623Z,78.79
2023-01-19T02:56:03.884Z,79.62
2023-01-19T02:57:03.669Z,80.83
2023-01-19T02:58:03.902Z,79.06
2023-01-19T02:59:02.947Z,81.01
2023-01-19T03:00:04.328Z,80.38
2023-01-19T03:01:03.413Z,79.41
2023-01-19T03:02:03.754Z,78.68
2023-01-19T03:03:04.292Z,77.33
2023-01-19T03:04:02.864Z,77.95
2023-01-19T03:05:05.031Z,77.64
2023-01-19T03:06:02.856Z,77.54
2023-01-19T03:07:03.677Z,77.44
2023-01-19T03:08:03.502Z,77.12
2023-01-19T03:09:03.660Z,77.78
2023-01-19T03:10:02.838Z,79.13
2023-01-19T03:11:03.636Z,78.99
2023-01-19T03:12:02.808Z,78.41
2023-01-19T03:13:04.068Z,78.51
2023-01-19T03:14:02.775Z,78.34
2023-01-19T03:15:03.588Z,79.31
2023-01-19T03:16:03.520Z,79.94
2023-01-19T03:17:03.628Z,80.98
2023-01-19T03:18:03.387Z,81.25
2023-01-19T03:19:02.748Z,81.15
2023-01-19T03:20:03.543Z,81.52
2023-01-19T03:21:03.621Z,81.42
2023-01-19T03:22:03.470Z,79.41
2023-01-19T03:23:03.084Z,77.64
2023-01-19T03:24:03.596Z,79.30
2023-01-19T03:25:03.298Z,78.78
2023-01-19T03:26:03.509Z,78.44
2023-01-19T03:27:03.407Z,79.06
2023-01-19T03:28:03.471Z,77.68
2023-01-19T03:29:03.300Z,76.43
2023-01-19T03:30:03.436Z,76.33
2023-01-19T03:31:03.419Z,75.40
2023-01-19T03:32:03.408Z,76.33
2023-01-19T03:33:03.626Z,74.71
2023-01-19T03:34:03.393Z,76.09
2023-01-19T03:35:02.579Z,76.54
2023-01-19T03:36:04.019Z,78.41
2023-01-19T03:37:03.278Z,78.34
2023-01-19T03:38:03.305Z,80.18
2023-01-19T03:39:03.239Z,79.03
2023-01-19T03:40:03.168Z,77.89
2023-01-19T03:41:03.328Z,79.51
2023-01-19T03:42:02.506Z,78.99
2023-01-19T03:43:04.168Z,78.86
2023-01-19T03:44:03.248Z,76.89
2023-01-19T03:45:02.462Z,76.37
2023-01-19T03:46:03.180Z,76.02
2023-01-19T03:47:02.435Z,77.72
2023-01-19T03:48:03.820Z,78.44
2023-01-19T03:49:02.748Z,77.20
2023-01-19T03:50:03.254Z,79.83
2023-01-19T03:51:03.260Z,80.52
2023-01-19T03:52:03.134Z,77.51
2023-01-19T03:53:03.433Z,78.65
2023-01-19T03:54:03.150Z,78.79
2023-01-19T03:55:02.972Z,78.89
2023-01-19T03:56:03.140Z,79.62
2023-01-19T03:57:03.070Z,80.83
2023-01-19T03:58:03.307Z,78.13
2023-01-19T03:59:03.000Z,79.21
2023-01-19T04:00:03.190Z,80.25
2023-01-19T04:01:02.998Z,80.98
2023-01-19T04:02:03.215Z,80.77
2023-01-19T04:03:03.478Z,80.15
2023-01-19T04:04:03.102Z,79.41
2023-01-19T04:05:03.040Z,81.81
2023-01-19T04:06:03.089Z,81.25
2023-01-19T04:07:03.049Z,81.01
2023-01-19T04:08:02.928Z,77.99
2023-01-19T04:09:03.007Z,78.51
2023-01-19T04:10:02.850Z,77.82
2023-01-19T04:11:03.187Z,79.58
2023-01-19T04:12:02.738Z,80.63
2023-01-19T04:13:02.628Z,77.65
2023-01-19T04:14:02.797Z,80.04
2023-01-19T04:15:02.952Z,81.35
2023-01-19T04:16:02.165Z,81.35
2023-01-19T04:17:04.129Z,80.28
2023-01-19T04:18:02.857Z,80.28
2023-01-19T04:19:02.888Z,79.76
2023-01-19T04:20:02.087Z,79.10
2023-01-19T04:21:02.908Z,79.51
2023-01-19T04:22:02.805Z,78.34
2023-01-19T04:23:02.596Z,76.99
2023-01-19T04:24:02.779Z,75.46
2023-01-19T04:25:02.640Z,75.57
2023-01-19T04:26:02.802Z,77.12
2023-01-19T04:27:02.690Z,78.37
2023-01-19T04:28:02.797Z,77.95
2023-01-19T04:29:02.019Z,79.30
2023-01-19T04:30:02.825Z,78.37
2023-01-19T04:31:02.903Z,77.75
2023-01-19T04:32:02.749Z,78.34
2023-01-19T04:33:03.069Z,78.44
2023-01-19T04:34:02.780Z,77.58
2023-01-19T04:35:02.668Z,76.23
2023-01-19T04:36:02.735Z,74.84
2023-01-19T04:37:02.683Z,75.05
2023-01-19T04:38:02.520Z,74.11
2023-01-19T04:39:02.789Z,74.05
2023-01-19T04:40:02.523Z,75.15
2023-01-19T04:41:01.889Z,76.71
2023-01-19T04:42:02.450Z,77.44
2023-01-19T04:43:03.107Z,77.64
2023-01-19T04:44:02.562Z,77.75
2023-01-19T04:45:02.697Z,79.30
2023-01-19T04:46:02.565Z,77.64
2023-01-19T04:47:02.683Z,77.44
2023-01-19T04:48:02.450Z,78.16
2023-01-19T04:49:02.615Z,77.44
2023-01-19T04:50:02.492Z,77.64
2023-01-19T04:51:02.612Z,77.37
2023-01-19T04:52:01.771Z,78.92
2023-01-19T04:53:02.723Z,79.76
2023-01-19T04:54:02.530Z,77.99
2023-01-19T04:55:02.528Z,78.99
2023-01-19T04:56:02.539Z,79.41
2023-01-19T04:57:02.358Z,77.85
2023-01-19T04:58:02.497Z,78.61
2023-01-19T04:59:01.679Z,77.99
2023-01-19T05:00:03.654Z,78.34
2023-01-19T05:01:02.364Z,79.69
2023-01-19T05:02:02.749Z,81.77
2023-01-19T05:03:02.896Z,80.38
2023-01-19T05:04:01.648Z,79.30
2023-01-19T05:05:03.490Z,78.51
2023-01-19T05:06:02.297Z,78.30
2023-01-19T05:07:02.347Z,78.61
2023-01-19T05:08:01.609Z,79.10
2023-01-19T05:09:02.919Z,78.68
2023-01-19T05:10:01.989Z,78.65
2023-01-19T05:11:02.378Z,78.03
2023-01-19T05:12:01.597Z,78.78
2023-01-19T05:13:02.721Z,79.38
2023-01-19T05:14:01.611Z,78.55
2023-01-19T05:15:02.831Z,78.09
2023-01-19T05:16:01.896Z,77.89
2023-01-19T05:17:02.908Z,76.33
2023-01-19T05:18:02.211Z,77.09
2023-01-19T05:19:02.767Z,77.72
2023-01-19T05:20:02.223Z,78.82
2023-01-19T05:21:02.862Z,77.47
2023-01-19T05:22:02.228Z,75.71
2023-01-19T05:23:02.449Z,75.81
2023-01-19T05:24:02.926Z,75.64
2023-01-19T05:25:02.038Z,76.71
2023-01-19T05:26:02.180Z,78.23
2023-01-19T05:27:02.039Z,78.75
2023-01-19T05:28:01.398Z,76.99
2023-01-19T05:29:02.508Z,76.37
2023-01-19T05:30:01.390Z,77.78
2023-01-19T05:31:02.098Z,76.75
2023-01-19T05:32:02.170Z,76.54
2023-01-19T05:33:01.729Z,76.33
2023-01-19T05:34:02.190Z,75.64
2023-01-19T05:35:01.963Z,76.19
2023-01-19T05:36:02.171Z,79.06
2023-01-19T05:37:02.163Z,77.47
2023-01-19T05:38:02.242Z,76.54
2023-01-19T05:39:01.627Z,77.23
2023-01-19T05:40:01.987Z,76.71
2023-01-19T05:41:01.988Z,75.15
2023-01-19T05:42:01.278Z,74.88
2023-01-19T05:43:02.422Z,75.23
2023-01-19T05:44:01.240Z,77.85
2023-01-19T05:45:02.029Z,78.47
2023-01-19T05:46:01.868Z,78.86
2023-01-19T05:47:02.153Z,78.20
2023-01-19T05:48:01.864Z,77.47
2023-01-19T05:49:01.247Z,75.71
2023-01-19T05:50:01.909Z,77.47
2023-01-19T05:51:01.948Z,75.78
2023-01-19T05:52:01.141Z,75.98
2023-01-19T05:53:02.357Z,75.19
2023-01-19T05:54:02.017Z,76.85
2023-01-19T05:55:01.647Z,76.12
2023-01-19T05:56:01.879Z,77.06
2023-01-19T05:57:01.686Z,75.98
2023-01-19T05:58:01.869Z,74.63
2023-01-19T05:59:01.699Z,75.19
2023-01-19T06:00:01.096Z,77.75
2023-01-19T06:01:02.640Z,74.43
2023-01-19T06:02:01.883Z,75.88
2023-01-19T06:03:02.173Z,76.19
2023-01-19T06:04:01.784Z,75.22
2023-01-19T06:05:01.800Z,74.50
2023-01-19T06:06:01.871Z,75.36
2023-01-19T06:07:01.329Z,75.26
2023-01-19T06:08:01.803Z,77.19
2023-01-19T06:09:00.978Z,75.32
2023-01-19T06:10:01.529Z,75.02
2023-01-19T06:11:01.738Z,74.91
2023-01-19T06:12:01.504Z,74.50
2023-01-19T06:13:02.219Z,74.29
2023-01-19T06:14:01.580Z,74.91
2023-01-19T06:15:01.740Z,74.19
2023-01-19T06:16:00.952Z,76.05
2023-01-19T06:17:01.688Z,74.29
2023-01-19T06:18:01.493Z,75.63
2023-01-19T06:19:00.885Z,75.53
2023-01-19T06:20:01.589Z,75.12
2023-01-19T06:21:00.841Z,74.50
2023-01-19T06:22:02.730Z,73.77
2023-01-19T06:23:02.518Z,75.74
2023-01-19T06:24:01.616Z,75.40
2023-01-19T06:25:01.649Z,76.32
2023-01-19T06:26:01.519Z,75.57
2023-01-19T06:27:01.408Z,74.43
2023-01-19T06:28:00.758Z,73.71
2023-01-19T06:29:01.411Z,73.29
2023-01-19T06:30:01.498Z,74.84
2023-01-19T06:31:01.442Z,72.77
2023-01-19T06:32:01.602Z,72.67
2023-01-19T06:33:01.189Z,75.05
2023-01-19T06:34:01.466Z,73.91
2023-01-19T06:35:01.368Z,74.12
2023-01-19T06:36:01.503Z,74.63
2023-01-19T06:37:01.627Z,73.91
2023-01-19T06:38:01.584Z,72.71
2023-01-19T06:39:01.400Z,74.77
2023-01-19T06:40:01.387Z,73.84
2023-01-19T06:41:00.658Z,74.88
2023-01-19T06:42:01.948Z,74.26
2023-01-19T06:43:01.413Z,73.67
2023-01-19T06:44:02.064Z,74.84
2023-01-19T06:45:00.590Z,75.46
2023-01-19T06:46:01.586Z,75.74
2023-01-19T06:47:15.685Z,75.63
2023-01-19T06:48:01.198Z,75.32
2023-01-19T06:49:01.340Z,74.71
2023-01-19T06:50:01.336Z,75.74
2023-01-19T06:51:01.703Z,73.88
2023-01-19T06:52:00.482Z,74.77
2023-01-19T06:53:01.739Z,75.71
2023-01-19T06:54:01.257Z,74.88
2023-01-19T06:55:01.288Z,74.46
2023-01-19T06:56:00.530Z,73.84
2023-01-19T06:57:02.731Z,74.63
2023-01-19T06:58:00.449Z,74.53
2023-01-19T06:59:01.198Z,74.74
2023-01-19T07:00:01.749Z,75.67
2023-01-19T07:01:02.584Z,74.02
2023-01-19T07:02:01.001Z,74.29
2023-01-19T07:03:02.180Z,73.67
2023-01-19T07:04:01.914Z,73.67
2023-01-19T07:05:01.190Z,74.08
2023-01-19T07:06:00.370Z,72.88
2023-01-19T07:07:02.009Z,73.60
2023-01-19T07:08:01.096Z,73.74
2023-01-19T07:09:01.132Z,74.19
2023-01-19T07:10:00.336Z,75.22
2023-01-19T07:11:25.222Z,75.63
2023-01-19T07:12:01.718Z,75.36
2023-01-19T07:13:00.799Z,76.88
2023-01-19T07:14:00.878Z,75.46
2023-01-19T07:15:00.278Z,77.37
2023-01-19T07:16:00.938Z,77.12
2023-01-19T07:17:01.590Z,75.63
2023-01-19T07:18:00.897Z,75.67
2023-01-19T07:19:01.043Z,76.43
2023-01-19T07:20:00.196Z,77.89
2023-01-19T07:21:01.274Z,77.68
2023-01-19T07:22:00.870Z,78.86
2023-01-19T07:23:01.464Z,78.58
2023-01-19T07:24:00.879Z,80.24
2023-01-19T07:25:01.043Z,79.30
2023-01-19T07:26:00.144Z,79.06
2023-01-19T07:27:02.119Z,78.68
2023-01-19T07:28:00.959Z,78.82
2023-01-19T07:29:00.767Z,80.66
2023-01-19T07:30:00.863Z,81.45
2023-01-19T07:31:00.899Z,81.14
2023-01-19T07:32:00.629Z,79.13
2023-01-19T07:33:01.001Z,78.09
2023-01-19T07:34:00.113Z,76.43
2023-01-19T07:35:01.310Z,78.44
2023-01-19T07:36:01.827Z,78.30
2023-01-19T07:37:00.858Z,77.26
2023-01-19T07:38:00.875Z,77.47
2023-01-19T07:39:00.758Z,78.51
2023-01-19T07:40:00.848Z,77.85
2023-01-19T07:41:00.717Z,76.50
2023-01-19T07:42:00.862Z,76.81
2023-01-19T07:43:01.860Z,77.92
2023-01-19T07:44:00.591Z,77.71
2023-01-19T07:45:00.803Z,76.23
2023-01-19T07:45:59.984Z,75.26
2023-01-19T07:47:00.831Z,74.32
2023-01-19T07:48:00.537Z,74.84
2023-01-19T07:49:00.769Z,74.12
2023-01-19T07:50:00.571Z,74.84
2023-01-19T07:51:00.799Z,74.77
2023-01-19T07:52:00.640Z,74.98
2023-01-19T07:53:00.225Z,75.81
2023-01-19T07:54:00.617Z,75.09
2023-01-19T07:55:00.739Z,76.23
2023-01-19T07:56:00.507Z,75.57
2023-01-19T07:57:00.659Z,75.05
2023-01-19T07:57:59.840Z,75.32
2023-01-19T07:59:00.360Z,74.81
2023-01-19T08:00:00.630Z,74.50
2023-01-19T08:01:00.673Z,73.57
2023-01-19T08:02:00.760Z,73.77
2023-01-19T08:03:01.024Z,74.29
2023-01-19T08:04:00.569Z,73.91
2023-01-19T08:04:59.758Z,75.46
2023-01-19T08:06:00.513Z,75.57
2023-01-19T08:07:00.419Z,74.71
2023-01-19T08:08:00.499Z,74.29
2023-01-19T08:08:59.744Z,75.63
2023-01-19T08:10:00.515Z,73.57
2023-01-19T08:11:00.409Z,73.71
2023-01-19T08:12:00.532Z,75.05
2023-01-19T08:13:00.075Z,75.53
2023-01-19T08:14:00.220Z,74.60
2023-01-19T08:15:00.486Z,74.77
2023-01-19T08:16:00.606Z,74.36
2023-01-19T08:17:00.900Z,73.43
2023-01-19T08:18:00.253Z,73.81
2023-01-19T08:18:59.621Z,73.33
2023-01-19T08:20:00.259Z,72.71
2023-01-19T08:21:00.425Z,73.02
2023-01-19T08:22:00.241Z,73.54
2023-01-19T08:23:01.086Z,74.05
2023-01-19T08:23:59.617Z,73.84
2023-01-19T08:25:00.402Z,72.81
2023-01-19T08:26:00.236Z,73.22
2023-01-19T08:27:00.347Z,73.43
2023-01-19T08:28:00.264Z,72.71
2023-01-19T08:29:00.407Z,71.91
2023-01-19T08:30:00.338Z,73.25
2023-01-19T08:31:08.011Z,73.67
2023-01-19T08:32:00.563Z,72.94
2023-01-19T08:33:00.206Z,73.67
2023-01-19T08:34:00.279Z,73.25
2023-01-19T08:35:00.988Z,74.08
2023-01-19T08:36:00.692Z,73.88
2023-01-19T08:37:00.174Z,73.05
2023-01-19T08:38:00.278Z,73.74
2023-01-19T08:39:00.117Z,73.22
2023-01-19T08:40:00.169Z,72.81
2023-01-19T08:40:59.398Z,72.19
2023-01-19T08:42:00.140Z,73.25
2023-01-19T08:43:00.622Z,73.94
2023-01-19T08:43:59.344Z,72.50
2023-01-19T08:45:00.089Z,73.22
2023-01-19T08:46:00.009Z,72.19
2023-01-19T08:47:00.132Z,73.19
2023-01-19T08:48:00.028Z,74.50
2023-01-19T08:49:00.119Z,74.98
2023-01-19T08:49:59.289Z,72.74
2023-01-19T08:51:00.109Z,73.15
2023-01-19T08:51:59.934Z,72.74
2023-01-19T08:53:00.494Z,73.15
2023-01-19T08:54:00.077Z,73.15
2023-01-19T08:55:00.052Z,74.19
2023-01-19T08:55:59.963Z,72.39
2023-01-19T08:57:00.099Z,71.57
2023-01-19T08:58:00.549Z,73.22
2023-01-19T08:59:08.747Z,72.39
2023-01-19T08:59:59.980Z,72.19
2023-01-19T09:00:59.888Z,73.02
2023-01-19T09:01:59.340Z,72.29
2023-01-19T09:03:01.628Z,72.98
2023-01-19T09:04:00.002Z,72.26
2023-01-19T09:04:59.150Z,72.02
2023-01-19T09:05:59.119Z,70.81
2023-01-19T09:06:59.798Z,71.95
2023-01-19T09:08:00.406Z,72.05
2023-01-19T09:08:59.804Z,71.81
2023-01-19T09:10:00.027Z,71.50
2023-01-19T09:10:59.066Z,71.84
2023-01-19T09:11:59.928Z,72.12
2023-01-19T09:12:59.819Z,73.12
2023-01-19T09:13:59.317Z,70.85
2023-01-19T09:14:59.819Z,72.57
2023-01-19T09:15:59.183Z,70.89
2023-01-19T09:16:59.784Z,70.06
2023-01-19T09:19:30.769Z,68.90
2023-01-19T09:21:20.193Z,68.07
2023-01-19T09:22:20.438Z,69.00
2023-01-19T09:23:20.558Z,66.94
2023-01-19T09:24:21.048Z,66.14
2023-01-19T09:25:19.824Z,67.41
2023-01-19T09:26:20.495Z,67.61
2023-01-19T09:27:19.769Z,68.34
2023-01-19T09:28:21.620Z,69.89
2023-01-19T09:29:20.558Z,68.93
2023-01-19T09:30:20.496Z,67.90
2023-01-19T09:31:20.075Z,69.41
2023-01-19T09:32:20.411Z,66.66
2023-01-19T09:33:20.493Z,68.41
2023-01-19T09:34:20.919Z,67.69
2023-01-19T09:35:20.500Z,68.03
2023-01-19T09:36:20.467Z,69.89
2023-01-19T09:37:20.971Z,68.51
2023-01-19T09:38:20.417Z,67.17
2023-01-19T09:39:20.287Z,68.93
2023-01-19T09:40:20.686Z,67.07
2023-01-19T09:41:21.028Z,67.79
2023-01-19T09:42:20.427Z,66.66
2023-01-19T09:43:20.308Z,67.90
2023-01-19T09:44:19.637Z,68.00
2023-01-19T09:45:20.251Z,68.16
2023-01-19T09:46:19.638Z,70.30
2023-01-19T09:47:19.690Z,69.89
2023-01-19T09:48:20.359Z,68.65
2023-01-19T09:49:20.247Z,69.13
2023-01-19T09:50:20.397Z,68.24
2023-01-19T09:51:20.298Z,69.34
2023-01-19T09:52:20.328Z,68.85
2023-01-19T09:53:20.425Z,68.54
2023-01-19T09:54:20.097Z,67.61
2023-01-19T09:55:20.248Z,68.82
2023-01-19T09:56:20.079Z,69.27
2023-01-19T09:57:20.269Z,68.93
2023-01-19T09:58:19.539Z,67.79
2023-01-19T09:59:20.300Z,68.85
2023-01-19T10:00:20.848Z,68.21
2023-01-19T10:01:20.335Z,68.41
2023-01-19T10:02:20.238Z,67.41
2023-01-19T10:03:20.266Z,67.21
2023-01-19T10:04:20.081Z,66.79
2023-01-19T10:05:20.151Z,68.75
2023-01-19T10:06:20.118Z,66.66
2023-01-19T10:07:20.304Z,66.48
2023-01-19T10:08:20.159Z,65.97
2023-01-19T10:09:19.977Z,64.73
2023-01-19T10:10:20.821Z,66.07
2023-01-19T10:11:19.908Z,64.55
2023-01-19T10:12:20.189Z,65.06
2023-01-19T10:13:19.928Z,66.00
2023-01-19T10:14:20.291Z,65.17
2023-01-19T10:15:20.252Z,65.14
2023-01-19T10:16:20.172Z,64.49
2023-01-19T10:17:19.260Z,63.87
2023-01-19T10:18:20.184Z,63.97
2023-01-19T10:19:19.940Z,63.49
2023-01-19T10:20:20.095Z,63.82
2023-01-19T10:21:19.966Z,64.03
2023-01-19T10:22:20.162Z,64.55
2023-01-19T10:23:19.908Z,62.69
2023-01-19T10:24:20.079Z,63.23
2023-01-19T10:25:20.684Z,63.75
2023-01-19T10:26:19.791Z,63.99
2023-01-19T10:27:20.098Z,63.68
2023-01-19T10:28:19.770Z,64.30
2023-01-19T10:29:19.927Z,65.75
2023-01-19T10:30:20.096Z,64.40
2023-01-19T10:31:20.064Z,64.09
2023-01-19T10:32:19.970Z,63.96
2023-01-19T10:33:20.489Z,66.41
2023-01-19T10:34:23.212Z,63.18
2023-01-19T10:35:19.888Z,63.18
2023-01-19T10:36:19.842Z,62.87
2023-01-19T10:37:19.817Z,61.73
2023-01-19T10:38:19.800Z,62.25
2023-01-19T10:39:19.947Z,60.73
2023-01-19T10:40:20.679Z,62.07
2023-01-19T10:41:19.679Z,61.35
2023-01-19T10:42:19.812Z,61.04
2023-01-19T10:43:19.629Z,62.15
2023-01-19T10:44:19.910Z,60.93
2023-01-19T10:45:19.718Z,64.11
2023-01-19T10:46:19.832Z,64.39
2023-01-19T10:47:19.578Z,63.15
2023-01-19T10:48:19.749Z,63.32
2023-01-19T10:49:19.680Z,60.54
2023-01-19T10:50:19.746Z,60.33
2023-01-19T10:51:18.920Z,59.95
2023-01-19T10:52:19.774Z,61.05
2023-01-19T10:53:18.929Z,61.36
2023-01-19T10:54:19.705Z,60.82
2023-01-19T10:55:19.667Z,58.14
2023-01-19T10:56:19.646Z,58.69
2023-01-19T10:57:19.689Z,59.72
2023-01-19T10:58:19.422Z,60.10
2023-01-19T10:59:19.628Z,57.14
2023-01-19T11:00:19.496Z,58.06
2023-01-19T11:01:19.651Z,58.89
2023-01-19T11:02:19.774Z,57.96
2023-01-19T11:03:19.834Z,57.93
2023-01-19T11:04:19.480Z,57.34
2023-01-19T11:05:19.648Z,60.02
2023-01-19T11:06:19.628Z,58.89
2023-01-19T11:07:19.497Z,57.96
2023-01-19T11:08:19.528Z,59.20
2023-01-19T11:09:19.550Z,58.30
2023-01-19T11:10:19.477Z,57.57
2023-01-19T11:11:19.567Z,60.67
2023-01-19T11:12:19.754Z,60.98
2023-01-19T11:13:19.309Z,60.26
2023-01-19T11:14:19.470Z,59.56
2023-01-19T11:15:19.273Z,58.04
2023-01-19T11:16:19.465Z,56.41
2023-01-19T11:17:19.861Z,57.99
2023-01-19T11:18:19.478Z,59.34
2023-01-19T11:19:20.369Z,57.89
2023-01-19T11:20:19.488Z,57.55
2023-01-19T11:21:19.368Z,57.14
2023-01-19T11:22:19.509Z,56.83
2023-01-19T11:23:19.347Z,55.51
2023-01-19T11:24:20.176Z,55.51
2023-01-19T11:25:25.488Z,55.41
2023-01-19T11:26:22.131Z,56.41
2023-01-19T11:27:20.671Z,55.69
2023-01-19T11:28:22.452Z,57.55
2023-01-19T11:29:34.486Z,58.97
2023-01-19T11:30:19.527Z,56.81
2023-01-19T11:31:19.578Z,56.60
2023-01-19T11:32:19.142Z,57.32
2023-01-19T11:33:19.214Z,58.87
2023-01-19T11:34:19.645Z,57.91
2023-01-19T11:35:19.635Z,59.05
2023-01-19T11:36:19.137Z,57.70
2023-01-19T11:37:19.402Z,58.15
2023-01-19T11:38:19.211Z,59.18
2023-01-19T11:39:19.245Z,59.83
2023-01-19T11:40:19.361Z,59.72
2023-01-19T11:41:19.355Z,60.27
2023-01-19T11:42:19.179Z,60.47
2023-01-19T11:43:19.205Z,61.10
2023-01-19T11:44:23.693Z,62.13
2023-01-19T11:45:19.020Z,61.92
2023-01-19T11:46:19.209Z,61.30
2023-01-19T11:47:19.115Z,61.61
2023-01-19T11:48:19.163Z,62.46
2023-01-19T11:49:19.717Z,62.16
2023-01-19T11:50:19.099Z,61.74
2023-01-19T11:51:19.290Z,63.71
2023-01-19T11:52:22.307Z,62.85
2023-01-19T11:53:19.715Z,63.16
2023-01-19T11:54:19.471Z,61.74
2023-01-19T11:55:19.350Z,62.39
2023-01-19T11:56:20.627Z,63.53
2023-01-19T11:57:19.808Z,63.01
2023-01-19T11:58:31.486Z,63.22
2023-01-19T11:59:19.392Z,63.01
2023-01-19T12:00:18.950Z,64.49
2023-01-19T12:01:19.042Z,64.98
2023-01-19T12:02:23.224Z,65.29
2023-01-19T12:03:19.049Z,65.70
2023-01-19T12:04:18.957Z,64.95
2023-01-19T12:05:18.959Z,64.43
2023-01-19T12:06:19.578Z,64.43
2023-01-19T12:07:19.536Z,64.53
2023-01-19T12:08:19.810Z,64.53
2023-01-19T12:09:18.927Z,64.81
2023-01-19T12:10:18.887Z,65.23
2023-01-19T12:11:19.115Z,64.58
2023-01-19T12:12:18.851Z,63.75
2023-01-19T12:13:18.917Z,63.44
2023-01-19T12:14:18.827Z,64.20
2023-01-19T12:15:18.692Z,64.40
2023-01-19T12:16:19.022Z,64.58
2023-01-19T12:17:18.666Z,65.09
2023-01-19T12:18:23.344Z,64.37
2023-01-19T12:19:22.885Z,65.61
2023-01-19T12:20:22.888Z,64.89
2023-01-19T12:21:19.835Z,65.20
2023-01-19T12:22:19.346Z,64.58
2023-01-19T12:23:18.647Z,64.37
2023-01-19T12:24:23.932Z,64.24
2023-01-19T12:25:19.146Z,64.81
2023-01-19T12:26:18.800Z,64.78
2023-01-19T12:27:19.881Z,64.17
2023-01-19T12:28:18.799Z,64.48
2023-01-19T12:29:22.986Z,64.61
2023-01-19T12:30:19.038Z,65.44
2023-01-19T12:31:18.911Z,65.95
2023-01-19T12:32:18.510Z,65.75
2023-01-19T12:33:19.161Z,66.03
2023-01-19T12:34:20.216Z,65.64
2023-01-19T12:35:18.847Z,65.78
2023-01-19T12:36:18.538Z,66.74
2023-01-19T12:37:28.370Z,67.46
2023-01-19T12:38:18.619Z,67.46
2023-01-19T12:39:18.601Z,67.33
2023-01-19T12:40:18.817Z,68.29
2023-01-19T12:41:18.875Z,68.40
2023-01-19T12:42:24.319Z,68.08
2023-01-19T12:43:18.565Z,68.15
2023-01-19T12:44:18.611Z,67.02
2023-01-19T12:45:18.564Z,67.36
2023-01-19T12:46:18.779Z,67.05
2023-01-19T12:47:21.341Z,67.57
2023-01-19T12:48:18.518Z,67.43
2023-01-19T12:49:19.055Z,65.36
2023-01-19T12:50:17.700Z,66.22
2023-01-19T12:51:18.436Z,67.74
2023-01-19T12:52:18.481Z,66.99
2023-01-19T12:53:18.426Z,66.03
2023-01-19T12:54:21.059Z,65.20